Alfred, Texas
Current Conditions -  °F | °C
As of 3:53 AM on Saturday 01 Nov 2014 (Local Time) from KALI Reporting Station
Clear Clear  
Wind Chill: 55°   Ceiling: Unl
Heat Index: 55°   Visibility: 10mi
Dew Point: 47°   Wind: 8mph
Humidity: 74%   Direction: 50°NE
Pressure: 30.27"   Gusts: NA
Location:  27.6821°N, 98.1034°W
Report Text: KALI 010853Z AUTO 05007KT 10SM CLR 13/08 A3027 RMK AO2 SLP250 T01280083 53001 $
Loading
Personal Weather Stations






























Interactive Weather Map
Tropical Storm Tracking
New forecast layout! Learn more

10-Day Weather Forecast

Advertisements
Track Severe Weather on mobile